FlightSource - Aviation Photo Database

World Wide Airport Lookup


Search by ICAO
Or
Search by City

FlightSource.ca - Aviation Photo Database - Firenze / Peretola Airport Information
Airport Identification
Name: Firenze / Peretola Airport
ICAO: LIRQ
IATA: FLR
Airport Location
City: Firenze
Region: 52
Country: Italy
Continent: Europe
Latitude: 43.81
Longitude: 11.2051
Airport Information
Type: Medium Airport
Elevation: 142 Feet ASL
Flight Status: LIRQ
More Info: LIRQ
Airport Weather    
Metar: LIRQ 210750Z VRB01KT CAVOK 17/11 Q1020
TAF:


Advertisement